Time;durP1;ratioP1;P1;durP2;ratioP2;P2;SDS_P1;SDS_P2;PMS_P1;PMS_P2;Temp;Humidity;BMP_temperature;BMP_pressure;BME280_temperature;BME280_humidity;BME280_pressure;Samples;Min_cycle;Max_cycle;Signal;HPM_P1;HPM_P2
2023/10/13 00:00:29;;;;;;;29.42;19.73;;;18.30;99.90;;;;;;6272858;22;20425;-83
2023/10/13 00:03:01;;;;;;;20.95;18.75;;;18.30;99.90;;;;;;6272840;22;20008;-83
2023/10/13 00:05:33;;;;;;;23.65;19.45;;;18.30;99.90;;;;;;6273243;22;20015;-83
2023/10/13 00:08:03;;;;;;;21.63;19.40;;;18.30;99.90;;;;;;6272684;22;20000;-82
2023/10/13 00:10:31;;;;;;;23.75;18.80;;;18.30;99.90;;;;;;6274716;22;20006;-83
2023/10/13 00:13:12;;;;;;;23.27;17.58;;;18.30;99.90;;;;;;6272796;22;20069;-81
2023/10/13 00:15:58;;;;;;;21.13;18.02;;;18.30;99.90;;;;;;6273570;22;20051;-85
2023/10/13 00:18:35;;;;;;;18.48;16.63;;;18.40;99.90;;;;;;6273431;22;20000;-82
2023/10/13 00:21:12;;;;;;;21.63;17.42;;;18.30;99.90;;;;;;6272092;22;20486;-83
2023/10/13 00:23:53;;;;;;;20.23;17.55;;;18.30;99.90;;;;;;6272689;22;20014;-83
2023/10/13 00:26:30;;;;;;;22.83;17.75;;;18.40;99.90;;;;;;6245143;22;20087;-83
2023/10/13 00:29:01;;;;;;;22.45;17.20;;;18.30;99.90;;;;;;6272568;22;19995;-82
2023/10/13 00:31:33;;;;;;;23.25;15.75;;;18.40;99.90;;;;;;6273191;22;20029;-83
2023/10/13 00:34:09;;;;;;;20.60;16.55;;;18.40;99.90;;;;;;6272543;22;20832;-82
2023/10/13 00:36:35;;;;;;;20.38;16.83;;;18.30;99.90;;;;;;6272986;22;20007;-82
2023/10/13 00:39:00;;;;;;;21.00;16.98;;;18.30;99.90;;;;;;6271604;22;20015;-83
2023/10/13 00:41:50;;;;;;;20.20;16.48;;;18.30;99.90;;;;;;6272649;22;20053;-83
2023/10/13 00:44:12;;;;;;;18.67;16.25;;;18.40;99.90;;;;;;6271719;22;20012;-83
2023/10/13 00:46:38;;;;;;;19.63;14.88;;;18.30;99.90;;;;;;6272830;22;20342;-83
2023/10/13 00:49:06;;;;;;;17.00;15.32;;;18.30;99.90;;;;;;6272260;22;20007;-82
2023/10/13 00:51:32;;;;;;;17.05;14.68;;;18.30;99.90;;;;;;6272833;22;20019;-82
2023/10/13 00:54:11;;;;;;;16.85;14.85;;;18.30;99.90;;;;;;6271935;22;20010;-83
2023/10/13 00:56:48;;;;;;;20.48;17.33;;;18.30;99.90;;;;;;6272623;22;20091;-82
2023/10/13 00:59:15;;;;;;;19.52;15.80;;;18.30;99.90;;;;;;6271973;22;20069;-83
2023/10/13 01:01:42;;;;;;;19.20;17.25;;;18.30;99.90;;;;;;6272307;22;20030;-82
2023/10/13 01:04:12;;;;;;;19.45;17.38;;;18.30;99.90;;;;;;6271931;22;20085;-82
2023/10/13 01:06:39;;;;;;;19.42;16.83;;;18.30;99.90;;;;;;6271907;22;20241;-83
2023/10/13 01:11:43;;;;;;;22.13;17.92;;;18.30;99.90;;;;;;6272545;22;20038;-82
2023/10/13 01:14:17;;;;;;;18.73;16.88;;;18.30;99.90;;;;;;6271799;22;20329;-83
2023/10/13 01:16:46;;;;;;;22.55;16.70;;;18.30;99.90;;;;;;6272344;22;20053;-82
2023/10/13 01:19:18;;;;;;;17.58;15.05;;;18.30;99.90;;;;;;6271730;22;20004;-83
2023/10/13 01:21:44;;;;;;;19.27;17.27;;;18.30;99.90;;;;;;6271944;22;20342;-83
2023/10/13 01:24:13;;;;;;;19.48;15.65;;;18.30;99.90;;;;;;6271606;22;20077;-83
2023/10/13 01:26:40;;;;;;;17.67;15.77;;;18.30;99.90;;;;;;6272225;22;20049;-83
2023/10/13 01:29:13;;;;;;;18.35;14.23;;;18.30;99.90;;;;;;6271766;22;19998;-83
2023/10/13 01:31:45;;;;;;;17.65;15.45;;;18.30;99.90;;;;;;6272146;22;20050;-83
2023/10/13 01:34:22;;;;;;;17.30;14.17;;;18.30;99.90;;;;;;6271658;22;19999;-83
2023/10/13 01:36:51;;;;;;;18.63;13.77;;;18.40;99.90;;;;;;6271424;22;20011;-82
2023/10/13 01:39:18;;;;;;;21.05;15.50;;;18.30;99.90;;;;;;6271308;22;20015;-83
2023/10/13 01:41:44;;;;;;;17.45;14.68;;;18.40;99.90;;;;;;6272276;22;20004;-82
2023/10/13 01:44:14;;;;;;;17.13;15.02;;;18.30;99.90;;;;;;6244336;22;20017;-82
2023/10/13 01:46:42;;;;;;;18.38;14.48;;;18.30;99.90;;;;;;6271891;22;20027;-82
2023/10/13 01:49:08;;;;;;;14.18;12.30;;;18.40;99.90;;;;;;6272139;22;20027;-82
2023/10/13 01:51:34;;;;;;;16.83;14.82;;;18.40;99.90;;;;;;6271293;22;20003;-82
2023/10/13 01:54:04;;;;;;;19.65;12.80;;;18.40;99.90;;;;;;6272110;22;20003;-82
2023/10/13 01:56:31;;;;;;;13.30;11.23;;;18.30;99.90;;;;;;6272175;22;20781;-83
2023/10/13 01:58:56;;;;;;;13.05;11.90;;;18.30;99.90;;;;;;6271820;22;20003;-84
2023/10/13 02:01:28;;;;;;;14.63;12.18;;;18.30;99.90;;;;;;6271498;22;20004;-83
2023/10/13 02:04:04;;;;;;;15.15;11.82;;;18.30;99.90;;;;;;6271952;22;20003;-83
2023/10/13 02:06:36;;;;;;;13.88;12.55;;;18.40;99.90;;;;;;6271257;22;20011;-83
2023/10/13 02:09:12;;;;;;;13.93;11.68;;;18.30;99.90;;;;;;6272072;22;20071;-83
2023/10/13 02:11:45;;;;;;;14.68;13.05;;;18.30;99.90;;;;;;6272491;22;20024;-82
2023/10/13 02:14:16;;;;;;;14.75;11.38;;;18.30;99.90;;;;;;6271262;22;20074;-82
2023/10/13 02:16:42;;;;;;;14.68;10.18;;;18.30;99.90;;;;;;6271901;22;20066;-82
2023/10/13 02:19:08;;;;;;;13.48;10.95;;;18.30;99.90;;;;;;6271001;22;20422;-82
2023/10/13 02:21:39;;;;;;;13.20;10.18;;;18.30;99.90;;;;;;6271761;22;20006;-83
2023/10/13 02:24:17;;;;;;;14.45;10.40;;;18.30;99.90;;;;;;6244157;22;20014;-82
2023/10/13 02:26:46;;;;;;;16.55;11.68;;;18.30;99.90;;;;;;6244646;22;20374;-82
2023/10/13 02:29:17;;;;;;;16.98;10.52;;;18.30;99.90;;;;;;6244111;22;20012;-83
2023/10/13 02:31:54;;;;;;;14.70;10.98;;;18.30;99.90;;;;;;6271875;22;20325;-83
2023/10/13 02:34:22;;;;;;;13.13;10.35;;;18.30;99.90;;;;;;6243743;22;20012;-83
2023/10/13 02:36:51;;;;;;;17.35;11.18;;;18.20;99.90;;;;;;6271916;22;19996;-84
2023/10/13 02:39:24;;;;;;;13.55;10.10;;;18.30;99.90;;;;;;6270810;22;20050;-83
2023/10/13 02:41:50;;;;;;;13.75;10.27;;;18.30;99.90;;;;;;6271708;22;20435;-82
2023/10/13 02:44:26;;;;;;;13.50;10.23;;;18.20;99.90;;;;;;6270990;22;20213;-82
2023/10/13 02:46:55;;;;;;;15.55;10.00;;;18.20;99.90;;;;;;6271369;22;20044;-83
2023/10/13 02:49:20;;;;;;;13.93;9.95;;;18.20;99.90;;;;;;6270774;22;19995;-82
2023/10/13 02:51:46;;;;;;;17.65;10.05;;;18.20;99.90;;;;;;6271532;22;20083;-83
2023/10/13 02:54:18;;;;;;;12.70;9.07;;;18.10;99.90;;;;;;6271136;22;20118;-82
2023/10/13 02:57:04;;;;;;;12.55;8.77;;;18.20;99.90;;;;;;6271478;22;20421;-82
2023/10/13 02:59:34;;;;;;;15.40;9.45;;;18.20;99.90;;;;;;6271123;22;20007;-83
2023/10/13 03:02:15;;;;;;;14.50;10.23;;;18.20;99.90;;;;;;6271219;22;20303;-82
2023/10/13 03:04:41;;;;;;;12.10;8.88;;;18.20;99.90;;;;;;6270858;22;20015;-82
2023/10/13 03:07:06;;;;;;;10.85;8.80;;;18.20;99.90;;;;;;6244003;22;20004;-82
2023/10/13 03:09:37;;;;;;;13.75;8.95;;;18.10;99.90;;;;;;6271425;22;20007;-83
2023/10/13 03:12:03;;;;;;;15.90;9.20;;;18.10;99.90;;;;;;6271523;22;19999;-82
2023/10/13 03:14:32;;;;;;;10.63;8.82;;;18.10;99.90;;;;;;6271216;22;20031;-82
2023/10/13 03:17:05;;;;;;;12.98;6.95;;;18.20;99.90;;;;;;6270709;22;20176;-83
2023/10/13 03:19:33;;;;;;;13.77;8.15;;;18.10;99.90;;;;;;6271318;22;20083;-83
2023/10/13 03:22:09;;;;;;;14.70;7.30;;;18.20;99.90;;;;;;6271335;22;20007;-84
2023/10/13 03:24:35;;;;;;;9.45;7.32;;;18.10;99.90;;;;;;6271274;22;20053;-83
2023/10/13 03:27:17;;;;;;;8.07;6.25;;;18.10;99.90;;;;;;6273450;22;20421;-82
2023/10/13 03:29:44;;;;;;;10.20;6.88;;;18.20;99.90;;;;;;6273409;22;20004;-83
2023/10/13 03:32:17;;;;;;;12.20;7.68;;;18.10;99.90;;;;;;6272531;22;19999;-83
2023/10/13 03:34:52;;;;;;;8.93;7.70;;;18.20;99.90;;;;;;6273271;22;20004;-83
2023/10/13 03:37:35;;;;;;;9.55;7.25;;;18.20;99.90;;;;;;6270931;22;20421;-82
2023/10/13 03:40:06;;;;;;;11.02;8.32;;;18.10;99.90;;;;;;6273052;22;20056;-82
2023/10/13 03:42:32;;;;;;;15.35;8.10;;;18.10;99.90;;;;;;6272181;22;20007;-82
2023/10/13 03:44:57;;;;;;;13.80;7.95;;;18.10;99.90;;;;;;6271855;22;20003;-81
2023/10/13 03:47:32;;;;;;;15.85;9.95;;;18.10;99.90;;;;;;6272309;22;20000;-82
2023/10/13 03:50:15;;;;;;;9.75;6.50;;;18.10;99.90;;;;;;6273109;22;20010;-81
2023/10/13 03:52:41;;;;;;;12.80;7.93;;;18.10;99.90;;;;;;6273483;22;19999;-81
2023/10/13 03:55:16;;;;;;;12.13;8.57;;;18.10;99.90;;;;;;6273030;22;20376;-81
2023/10/13 03:57:42;;;;;;;15.80;10.75;;;18.10;99.90;;;;;;6272740;22;20440;-81
2023/10/13 04:00:09;;;;;;;23.17;12.52;;;18.10;99.90;;;;;;6272712;22;20075;-81
2023/10/13 04:02:36;;;;;;;12.80;9.52;;;18.10;99.90;;;;;;6273019;22;20003;-80
2023/10/13 04:05:07;;;;;;;19.00;11.50;;;18.10;99.90;;;;;;6272292;22;20282;-80
2023/10/13 04:07:39;;;;;;;17.70;12.88;;;18.10;99.90;;;;;;6273413;22;19996;-80
2023/10/13 04:11:49;;;;;;;17.23;12.00;;;18.20;99.90;;;;;;6273038;22;20023;-80
2023/10/13 04:14:19;;;;;;;16.77;11.55;;;18.10;99.90;;;;;;6272323;22;20081;-79
2023/10/13 04:18:59;;;;;;;17.63;11.63;;;18.10;99.90;;;;;;6272946;22;20015;-79
2023/10/13 04:32:38;;;;;;;17.27;11.63;;;18.10;99.90;;;;;;6180338;23;20136;-80
2023/10/13 04:38:01;;;;;;;16.13;12.48;;;18.20;99.90;;;;;;6182871;23;20316;-81
2023/10/13 04:40:25;;;;;;;14.93;10.75;;;18.10;99.90;;;;;;6178377;23;20007;-80
2023/10/13 04:42:57;;;;;;;21.05;12.80;;;18.20;99.90;;;;;;6179043;23;20005;-80
2023/10/13 04:45:53;;;;;;;19.48;13.23;;;18.20;99.90;;;;;;6177225;23;20013;-80
2023/10/13 04:48:17;;;;;;;18.05;13.48;;;18.10;99.90;;;;;;6174719;23;20005;-80
2023/10/13 04:50:50;;;;;;;18.98;13.82;;;18.20;99.90;;;;;;6174987;23;20164;-80
2023/10/13 04:56:53;;;;;;;19.17;14.88;;;18.20;99.90;;;;;;6155099;23;20052;-80
2023/10/13 05:04:30;;;;;;;;;;;18.30;99.90;;;;;;6236636;23;20019;-80
2023/10/13 05:48:34;;;;;;;17.63;13.15;;;18.60;99.90;;;;;;6210630;23;20011;-80
2023/10/13 06:29:35;;;;;;;12.63;8.82;;;18.80;99.90;;;;;;6210507;23;20330;-79
2023/10/13 06:32:01;;;;;;;9.70;8.23;;;18.90;99.90;;;;;;6210480;23;20001;-80
2023/10/13 06:34:45;;;;;;;12.18;9.23;;;18.90;99.90;;;;;;6210619;23;20005;-79
2023/10/13 06:37:26;;;;;;;;;;;18.90;99.90;;;;;;6211195;23;20473;-80
2023/10/13 06:39:56;;;;;;;9.25;7.47;;;18.90;99.90;;;;;;6210531;23;20202;-80
2023/10/13 06:42:28;;;;;;;9.43;8.20;;;18.90;99.90;;;;;;6210143;23;20026;-79
2023/10/13 06:44:58;;;;;;;12.52;9.23;;;18.90;99.90;;;;;;6210270;23;20015;-80
2023/10/13 06:47:27;;;;;;;11.60;8.20;;;19.00;99.90;;;;;;6210135;23;19997;-80
2023/10/13 06:49:54;;;;;;;9.90;8.27;;;19.00;99.90;;;;;;6210460;23;20003;-80
2023/10/13 06:52:22;;;;;;;9.98;7.53;;;19.00;99.90;;;;;;6210366;23;20026;-81
2023/10/13 06:54:50;;;;;;;12.80;8.02;;;19.00;99.90;;;;;;6210113;23;20007;-80
2023/10/13 06:57:20;;;;;;;12.23;7.13;;;19.00;99.90;;;;;;6210588;23;20338;-80
2023/10/13 06:59:46;;;;;;;7.35;6.50;;;19.00;99.90;;;;;;6210362;23;20000;-80
2023/10/13 07:02:20;;;;;;;10.60;7.43;;;19.10;99.90;;;;;;6234229;23;20004;-80
2023/10/13 07:04:51;;;;;;;10.40;7.65;;;19.10;99.90;;;;;;6210259;23;20040;-81
2023/10/13 07:07:17;;;;;;;10.38;7.32;;;19.10;99.90;;;;;;6210458;23;20483;-80
2023/10/13 07:09:49;;;;;;;10.93;8.23;;;19.10;99.90;;;;;;6209373;23;20032;-80
2023/10/13 07:12:22;;;;;;;12.23;7.43;;;19.10;99.90;;;;;;6208896;23;20383;-81
2023/10/13 07:14:51;;;;;;;9.82;8.02;;;19.10;99.90;;;;;;6210153;23;20001;-80
2023/10/13 07:17:23;;;;;;;13.77;8.45;;;19.10;99.90;;;;;;6210289;23;20026;-80
2023/10/13 07:19:53;;;;;;;10.48;7.78;;;19.10;99.90;;;;;;6234017;23;20444;-81
2023/10/13 07:22:19;;;;;;;12.50;8.82;;;19.10;99.90;;;;;;6211003;23;20388;-82
2023/10/13 07:24:48;;;;;;;12.55;8.18;;;19.10;99.90;;;;;;6210026;23;20009;-81
2023/10/13 07:27:22;;;;;;;10.63;7.45;;;19.10;99.90;;;;;;6210660;23;20020;-81
2023/10/13 07:32:36;;;;;;;11.85;7.93;;;19.10;99.90;;;;;;6210049;23;20031;-81
2023/10/13 07:35:06;;;;;;;11.40;8.35;;;19.10;99.90;;;;;;6209658;23;20338;-82
2023/10/13 07:37:32;;;;;;;16.75;8.20;;;19.10;99.90;;;;;;6216808;22;20253;-81
2023/10/13 07:39:58;;;;;;;19.77;8.73;;;19.10;99.90;;;;;;6270980;22;20073;-81
2023/10/13 07:42:38;;;;;;;12.75;8.13;;;19.10;99.90;;;;;;6271127;22;20007;-79
2023/10/13 07:45:05;;;;;;;14.00;8.73;;;19.20;99.90;;;;;;6271308;22;20000;-74
2023/10/13 07:47:32;;;;;;;14.35;8.52;;;19.20;99.90;;;;;;6270184;22;20421;-74
2023/10/13 07:49:58;;;;;;;14.80;7.20;;;19.20;99.90;;;;;;6270223;22;20000;-75
2023/10/13 07:52:36;;;;;;;12.43;8.45;;;19.20;99.90;;;;;;6269416;22;20074;-75
2023/10/13 07:55:21;;;;;;;11.82;8.05;;;19.20;99.90;;;;;;6270305;22;20042;-75
2023/10/13 07:57:59;;;;;;;14.65;8.48;;;19.20;99.90;;;;;;6270571;22;20003;-75
2023/10/13 08:08:37;;;;;;;14.50;8.60;;;19.30;99.90;;;;;;6269901;22;20141;-75
2023/10/13 08:13:58;;;;;;;15.77;6.95;;;19.20;99.90;;;;;;6272011;22;20014;-74
2023/10/13 08:17:11;;;;;;;18.02;9.30;;;19.30;99.90;;;;;;6271483;22;20004;-74
2023/10/13 08:45:52;;;;;;;17.15;7.22;;;19.80;99.90;;;;;;6283091;22;20004;-74
2023/10/13 08:51:43;;;;;;;13.40;6.93;;;19.90;99.90;;;;;;6282472;22;20079;-74
2023/10/13 08:53:34;;;;;;;11.32;6.32;;;20.00;99.90;;;;;;6251964;22;20372;-74
2023/10/13 08:56:06;;;;;;;15.68;7.40;;;20.10;99.90;;;;;;6272295;22;20030;-74
2023/10/13 09:12:14;;;;;;;9.57;5.63;;;20.30;99.90;;;;;;6272585;22;20418;-74
2023/10/13 09:14:44;;;;;;;14.85;6.70;;;20.30;99.90;;;;;;6244210;22;20003;-75
2023/10/13 09:18:12;;;;;;;11.88;6.82;;;20.40;99.90;;;;;;6244871;22;20007;-74
2023/10/13 09:19:58;;;;;;;12.50;6.80;;;20.40;99.90;;;;;;6240117;22;20007;-74
2023/10/13 09:22:37;;;;;;;13.00;6.20;;;20.40;99.90;;;;;;6244408;22;20053;-74
2023/10/13 09:25:13;;;;;;;11.93;6.70;;;20.50;99.90;;;;;;6272427;22;20010;-74
2023/10/13 09:27:39;;;;;;;11.73;5.95;;;20.50;99.90;;;;;;6272121;22;20026;-75
2023/10/13 09:30:22;;;;;;;15.75;6.78;;;20.50;99.90;;;;;;6272228;22;20008;-75
2023/10/13 09:33:01;;;;;;;9.68;5.75;;;20.50;99.90;;;;;;6272381;22;20008;-74
2023/10/13 09:35:28;;;;;;;13.93;5.97;;;20.40;99.90;;;;;;6243566;22;20076;-77
2023/10/13 09:37:56;;;;;;;11.15;6.75;;;20.40;99.90;;;;;;6272179;22;20628;-75
2023/10/13 09:40:33;;;;;;;12.50;6.78;;;20.40;99.90;;;;;;6271581;22;20313;-74
2023/10/13 09:43:05;;;;;;;17.60;6.30;;;20.30;99.90;;;;;;6244924;22;20007;-74
2023/10/13 09:45:43;;;;;;;19.38;7.32;;;20.40;99.90;;;;;;6270354;22;20007;-74
2023/10/13 09:48:16;;;;;;;13.20;6.82;;;20.40;99.90;;;;;;6243511;22;20087;-74
2023/10/13 09:50:44;;;;;;;17.35;7.95;;;20.40;99.90;;;;;;6271398;22;20004;-75
2023/10/13 09:53:14;;;;;;;13.20;7.40;;;20.40;99.90;;;;;;6271830;22;20393;-74
2023/10/13 09:55:54;;;;;;;11.63;5.85;;;20.30;99.90;;;;;;6271710;22;20004;-74
2023/10/13 09:58:28;;;;;;;12.82;7.03;;;20.40;99.90;;;;;;6271774;22;20007;-74
2023/10/13 10:01:09;;;;;;;12.45;6.30;;;20.40;99.90;;;;;;6271964;22;19996;-74
2023/10/13 10:06:39;;;;;;;16.00;6.88;;;20.50;99.90;;;;;;6271260;22;20035;-74
2023/10/13 10:09:12;;;;;;;10.90;5.75;;;20.50;99.90;;;;;;6271393;22;19996;-74
2023/10/13 10:11:56;;;;;;;;;;;20.50;99.90;;;;;;6272231;22;20498;-74
2023/10/13 10:14:46;;;;;;;13.02;6.90;;;20.50;99.90;;;;;;6271555;22;19914;-75
2023/10/13 10:17:14;;;;;;;11.18;6.45;;;20.50;99.90;;;;;;6244199;22;20310;-74
2023/10/13 10:19:55;;;;;;;12.10;6.97;;;20.60;99.90;;;;;;6243492;22;20077;-74
2023/10/13 10:22:33;;;;;;;14.10;6.90;;;20.60;99.90;;;;;;6271274;22;20084;-74
2023/10/13 10:25:01;;;;;;;14.43;7.63;;;20.60;99.90;;;;;;6244313;22;20374;-74
2023/10/13 10:27:31;;;;;;;16.17;7.75;;;20.60;99.90;;;;;;6271208;22;20003;-74
2023/10/13 10:29:58;;;;;;;16.83;6.10;;;20.70;99.90;;;;;;6271571;22;20007;-74
2023/10/13 10:32:33;;;;;;;11.50;6.55;;;20.70;99.90;;;;;;6243128;22;20069;-74
2023/10/13 10:35:14;;;;;;;13.90;6.25;;;20.70;99.90;;;;;;6271422;22;20006;-74
2023/10/13 10:37:46;;;;;;;11.38;6.15;;;20.70;99.90;;;;;;6270923;22;20015;-74
2023/10/13 10:40:32;;;;;;;12.35;6.28;;;20.60;99.90;;;;;;6270789;22;20004;-74
2023/10/13 10:43:01;;;;;;;14.88;6.78;;;20.70;99.90;;;;;;6271516;22;20018;-74
2023/10/13 10:45:33;;;;;;;14.55;6.38;;;20.70;99.90;;;;;;6270942;22;20065;-74
2023/10/13 10:47:59;;;;;;;20.20;7.30;;;20.70;99.90;;;;;;6270675;22;20000;-74
2023/10/13 10:50:34;;;;;;;10.90;6.28;;;20.80;99.90;;;;;;6271550;22;20006;-74
2023/10/13 10:53:06;;;;;;;9.88;6.18;;;20.90;99.90;;;;;;6244105;22;20022;-74
2023/10/13 10:55:31;;;;;;;12.90;6.60;;;21.00;99.90;;;;;;6270811;22;20338;-74
2023/10/13 10:58:08;;;;;;;12.75;6.70;;;21.00;99.90;;;;;;6271125;22;20037;-74
2023/10/13 11:00:45;;;;;;;18.60;7.32;;;21.00;99.90;;;;;;6271182;22;20378;-74
2023/10/13 11:03:11;;;;;;;15.43;6.45;;;21.00;99.90;;;;;;6270313;22;19996;-74
2023/10/13 11:05:47;;;;;;;11.27;6.60;;;21.10;99.90;;;;;;6270863;22;20003;-74
2023/10/13 11:08:32;;;;;;;11.68;6.25;;;21.10;99.90;;;;;;6270975;22;20121;-74
2023/10/13 11:11:00;;;;;;;11.30;7.03;;;21.20;99.90;;;;;;6271107;22;20532;-74
2023/10/13 11:13:30;;;;;;;12.25;6.85;;;21.30;99.90;;;;;;6270906;22;20006;-74
2023/10/13 11:15:57;;;;;;;11.52;6.85;;;21.30;99.90;;;;;;6271091;22;20034;-74
2023/10/13 11:18:37;;;;;;;14.30;7.63;;;21.30;99.90;;;;;;6271200;22;20034;-74
2023/10/13 11:21:06;;;;;;;13.15;7.18;;;21.40;99.90;;;;;;6270983;22;20075;-74
2023/10/13 11:23:36;;;;;;;15.38;6.85;;;21.40;99.90;;;;;;6243895;22;20031;-74
2023/10/13 11:26:03;;;;;;;11.23;5.75;;;21.30;99.90;;;;;;6271135;22;20027;-73
2023/10/13 11:28:28;;;;;;;11.73;5.90;;;21.30;99.90;;;;;;6271427;22;19999;-74
2023/10/13 11:30:58;;;;;;;9.18;6.82;;;21.30;99.90;;;;;;6270746;22;20302;-74
2023/10/13 11:33:28;;;;;;;13.35;6.60;;;21.30;99.90;;;;;;6271188;22;20076;-74
2023/10/13 11:35:55;;;;;;;13.45;7.75;;;21.30;99.90;;;;;;6271359;22;20000;-74
2023/10/13 11:38:27;;;;;;;14.43;6.78;;;21.30;99.90;;;;;;6271028;22;20085;-73
2023/10/13 11:41:12;;;;;;;14.93;7.63;;;21.30;99.90;;;;;;6270648;22;20287;-73
2023/10/13 11:48:36;;;;;;;8.80;6.43;;;21.20;99.90;;;;;;6273017;22;20345;-73
2023/10/13 11:51:07;;;;;;;11.23;6.50;;;21.30;99.90;;;;;;6272340;22;20437;-74
2023/10/13 11:53:33;;;;;;;15.40;7.07;;;21.30;99.90;;;;;;6273669;22;19995;-74
2023/10/13 11:55:58;;;;;;;12.70;8.20;;;21.30;99.90;;;;;;6272988;22;19999;-74
2023/10/13 11:58:24;;;;;;;16.40;7.72;;;21.40;99.90;;;;;;6272593;22;20464;-74
2023/10/13 12:11:42;;;;;;;13.85;7.22;;;21.50;99.90;;;;;;6282980;22;20052;-74
2023/10/13 12:14:27;;;;;;;11.75;5.88;;;21.60;99.90;;;;;;6271962;22;19996;-74
2023/10/13 12:16:53;;;;;;;14.95;7.22;;;21.70;99.90;;;;;;6272915;22;20010;-75
2023/10/13 12:19:26;;;;;;;18.08;6.53;;;21.80;99.90;;;;;;6272607;22;20023;-74
2023/10/13 12:21:55;;;;;;;;;;;21.80;99.90;;;;;;6273249;22;20075;-73
2023/10/13 12:24:30;;;;;;;11.20;6.20;;;21.80;99.90;;;;;;6245185;22;20313;-74
2023/10/13 12:26:57;;;;;;;28.58;7.03;;;21.90;99.90;;;;;;6272051;22;19992;-75
2023/10/13 12:29:29;;;;;;;20.85;7.75;;;21.90;99.90;;;;;;6272041;22;20014;-74
2023/10/13 12:32:22;;;;;;;14.85;6.85;;;21.80;99.90;;;;;;6272476;22;20003;-74
2023/10/13 12:51:50;;;;;;;14.40;7.30;;;22.00;99.90;;;;;;6269756;22;20023;-73
2023/10/13 12:54:35;;;;;;;16.48;7.28;;;22.00;99.90;;;;;;6266885;22;20011;-74
2023/10/13 12:57:00;;;;;;;16.08;8.02;;;22.00;99.90;;;;;;6270344;22;20425;-74
2023/10/13 12:59:26;;;;;;;16.40;6.65;;;22.00;99.90;;;;;;6272239;22;20010;-73
2023/10/13 13:01:53;;;;;;;14.13;7.53;;;22.00;99.90;;;;;;6272189;22;20091;-73
2023/10/13 13:04:20;;;;;;;17.75;7.47;;;22.00;99.90;;;;;;6271987;22;20038;-73
2023/10/13 13:06:49;;;;;;;9.18;6.28;;;22.00;99.90;;;;;;6271888;22;20421;-73
2023/10/13 13:09:15;;;;;;;12.82;7.40;;;22.00;99.90;;;;;;6244767;22;20003;-73
2023/10/13 13:11:41;;;;;;;11.05;6.50;;;22.00;99.90;;;;;;6271153;22;19996;-73
2023/10/13 13:14:07;;;;;;;17.23;7.38;;;22.00;99.90;;;;;;6272097;22;20082;-74
2023/10/13 13:16:33;;;;;;;13.73;6.35;;;22.00;99.90;;;;;;6272066;22;20065;-73
2023/10/13 13:19:02;;;;;;;18.48;7.15;;;22.00;99.90;;;;;;6244783;22;20010;-73
2023/10/13 13:21:28;;;;;;;15.43;7.75;;;22.00;99.90;;;;;;6271853;22;20003;-73
2023/10/13 13:23:54;;;;;;;13.48;6.32;;;22.00;99.90;;;;;;6272136;22;20325;-74
2023/10/13 13:26:21;;;;;;;15.63;6.38;;;21.90;99.90;;;;;;6270911;22;20000;-73
2023/10/13 13:28:50;;;;;;;12.85;6.20;;;22.00;99.90;;;;;;6271901;22;20010;-74
2023/10/13 13:31:26;;;;;;;15.20;6.85;;;22.00;99.90;;;;;;6271673;22;20309;-73
2023/10/13 13:33:52;;;;;;;12.95;6.38;;;21.90;99.90;;;;;;6271971;22;20026;-74
2023/10/13 13:36:19;;;;;;;14.75;6.88;;;21.90;99.90;;;;;;6271612;22;20018;-73
2023/10/13 13:38:54;;;;;;;16.92;6.30;;;21.90;99.90;;;;;;6271663;22;20038;-74
2023/10/13 13:41:21;;;;;;;10.38;6.38;;;21.90;99.90;;;;;;6271139;22;20006;-74
2023/10/13 13:46:24;;;;;;;12.00;7.38;;;21.80;99.90;;;;;;6271349;22;20079;-74
2023/10/13 13:48:51;;;;;;;11.02;5.50;;;21.80;99.90;;;;;;6272053;22;20007;-73
2023/10/13 13:51:26;;;;;;;12.02;6.18;;;21.80;99.90;;;;;;6271565;22;20004;-73
2023/10/13 13:53:52;;;;;;;8.10;5.80;;;21.80;99.90;;;;;;6271978;22;20003;-73
2023/10/13 13:56:19;;;;;;;12.00;5.70;;;21.80;99.90;;;;;;6270601;22;20006;-73
2023/10/13 13:58:53;;;;;;;12.90;6.78;;;21.80;99.90;;;;;;6271384;22;20057;-73
2023/10/13 14:01:21;;;;;;;15.30;6.63;;;21.70;99.90;;;;;;6271382;22;20007;-74
2023/10/13 14:03:49;;;;;;;11.82;5.65;;;21.80;99.90;;;;;;6271718;22;20027;-74
2023/10/13 14:06:34;;;;;;;10.85;5.45;;;21.70;99.90;;;;;;6271180;22;20058;-74
2023/10/13 14:09:04;;;;;;;15.35;6.18;;;21.70;99.90;;;;;;6271552;22;20075;-74
2023/10/13 14:14:13;;;;;;;16.27;5.90;;;21.70;99.90;;;;;;6282132;22;20033;-75
2023/10/13 14:16:47;;;;;;;12.70;5.05;;;21.70;99.90;;;;;;6271508;22;20011;-74
2023/10/13 14:19:26;;;;;;;13.57;4.90;;;21.70;99.90;;;;;;6271195;22;20053;-74
2023/10/13 14:21:53;;;;;;;13.43;5.88;;;21.70;99.90;;;;;;6271445;22;20325;-74
2023/10/13 14:24:27;;;;;;;16.45;5.93;;;21.60;99.90;;;;;;6243719;22;20337;-74
2023/10/13 14:27:07;;;;;;;13.25;5.22;;;21.60;99.90;;;;;;6271387;22;20004;-74
2023/10/13 14:29:33;;;;;;;17.55;5.85;;;21.60;99.90;;;;;;6271627;22;20019;-75
2023/10/13 14:31:59;;;;;;;12.05;5.30;;;21.60;99.90;;;;;;6271267;22;20007;-74
2023/10/13 14:34:26;;;;;;;13.68;5.82;;;21.50;99.90;;;;;;6271316;22;20377;-74
2023/10/13 14:36:54;;;;;;;13.93;5.70;;;21.50;99.90;;;;;;6271767;22;20317;-74
2023/10/13 14:39:20;;;;;;;12.50;6.20;;;21.50;99.90;;;;;;6270634;22;20019;-74
2023/10/13 14:41:47;;;;;;;15.35;5.93;;;21.40;99.90;;;;;;6270543;22;20004;-75
2023/10/13 14:44:13;;;;;;;11.95;6.18;;;21.50;99.90;;;;;;6271212;22;20015;-74
2023/10/13 14:46:39;;;;;;;16.42;5.40;;;21.40;99.90;;;;;;6271352;22;20022;-74
2023/10/13 14:49:06;;;;;;;12.98;6.20;;;21.40;99.90;;;;;;6271384;22;20432;-75
2023/10/13 14:51:31;;;;;;;14.07;5.53;;;21.40;99.90;;;;;;6271817;22;20424;-74
2023/10/13 14:53:59;;;;;;;12.68;5.10;;;21.40;99.90;;;;;;6270917;22;20008;-74
2023/10/13 14:56:26;;;;;;;17.42;6.07;;;21.30;99.90;;;;;;6270453;22;20433;-74
2023/10/13 14:58:53;;;;;;;9.65;4.88;;;21.40;99.90;;;;;;6271169;22;20364;-74
2023/10/13 15:01:20;;;;;;;10.05;5.63;;;21.40;99.90;;;;;;6271052;22;20003;-74
2023/10/13 15:03:48;;;;;;;11.82;5.68;;;21.30;99.90;;;;;;6271020;22;20004;-74
2023/10/13 15:06:28;;;;;;;13.45;5.65;;;21.30;99.90;;;;;;6270539;22;20000;-75
2023/10/13 15:08:55;;;;;;;11.98;5.43;;;21.30;99.90;;;;;;6270688;22;20443;-74
2023/10/13 15:11:26;;;;;;;12.13;5.45;;;21.30;99.90;;;;;;6270582;22;20379;-75
2023/10/13 15:13:56;;;;;;;12.43;5.75;;;21.30;99.90;;;;;;6271161;22;19996;-74
2023/10/13 15:16:24;;;;;;;13.95;6.18;;;21.30;99.90;;;;;;6243915;22;20456;-74
2023/10/13 15:18:52;;;;;;;14.38;6.75;;;21.20;99.90;;;;;;6270752;22;20419;-74
2023/10/13 15:21:28;;;;;;;14.18;5.88;;;21.20;99.90;;;;;;6272204;22;20000;-75
2023/10/13 15:23:59;;;;;;;10.98;5.88;;;21.20;99.90;;;;;;6272537;22;20008;-74
2023/10/13 15:26:25;;;;;;;10.68;5.63;;;21.20;99.90;;;;;;6272756;22;20002;-74
2023/10/13 15:28:55;;;;;;;9.98;5.55;;;21.10;99.90;;;;;;6273111;22;19996;-74
2023/10/13 15:34:00;;;;;;;14.45;5.45;;;21.10;99.90;;;;;;6283496;22;20018;-75
2023/10/13 15:36:26;;;;;;;13.82;5.70;;;21.00;99.90;;;;;;6272491;22;20007;-74
2023/10/13 15:38:56;;;;;;;9.30;5.82;;;20.90;99.90;;;;;;6273279;22;20007;-75
2023/10/13 15:41:28;;;;;;;11.68;6.13;;;20.90;99.90;;;;;;6246048;22;20004;-76
2023/10/13 15:43:55;;;;;;;12.87;5.87;;;20.90;99.90;;;;;;6245860;22;20030;-75
2023/10/13 15:46:24;;;;;;;14.82;5.88;;;20.80;99.90;;;;;;6273634;22;20459;-74
2023/10/13 15:48:51;;;;;;;8.55;6.00;;;20.70;99.90;;;;;;6273314;22;20003;-74
2023/10/13 15:51:17;;;;;;;12.02;5.90;;;20.70;99.90;;;;;;6272009;22;20010;-74
2023/10/13 15:53:44;;;;;;;8.48;6.13;;;20.70;99.90;;;;;;6272620;22;20003;-74
2023/10/13 15:56:14;;;;;;;13.98;5.75;;;20.60;99.90;;;;;;6272555;22;20000;-74
2023/10/13 15:58:45;;;;;;;12.18;5.82;;;20.50;99.90;;;;;;6272580;22;20019;-74
2023/10/13 16:01:14;;;;;;;14.30;6.38;;;20.50;99.90;;;;;;6272701;22;20026;-74
2023/10/13 16:03:43;;;;;;;11.63;6.28;;;20.50;99.90;;;;;;6272171;22;20024;-74
2023/10/13 16:06:10;;;;;;;11.23;6.03;;;20.40;99.90;;;;;;6271647;22;20059;-72
2023/10/13 16:08:43;;;;;;;11.32;5.93;;;20.40;99.90;;;;;;6272128;22;20007;-75
2023/10/13 16:11:13;;;;;;;15.88;6.38;;;20.40;99.90;;;;;;6272684;22;19999;-74
2023/10/13 16:13:42;;;;;;;16.92;7.93;;;20.40;99.90;;;;;;6272688;22;20038;-74
2023/10/13 16:16:18;;;;;;;12.85;6.60;;;20.40;99.90;;;;;;6272500;22;20053;-74
2023/10/13 16:18:45;;;;;;;13.02;7.40;;;20.40;99.90;;;;;;6272799;22;20007;-74
2023/10/13 16:21:14;;;;;;;17.65;6.40;;;20.30;99.90;;;;;;6271880;22;19999;-74
2023/10/13 16:23:41;;;;;;;12.38;6.82;;;20.30;99.90;;;;;;6272575;22;20000;-73